Time;durP1;ratioP1;P1;durP2;ratioP2;P2;SDS_P1;SDS_P2;PMS_P1;PMS_P2;Temp;Humidity;BMP_temperature;BMP_pressure;BME280_temperature;BME280_humidity;BME280_pressure;Samples;Min_cycle;Max_cycle;Signal;HPM_P1;HPM_P2
2022/12/18 00:01:32;;;;;;;;;63.75;50.50;;;;;-1.53;100.00;101995.56;5054346;28;47440;-80
2022/12/18 00:04:00;;;;;;;;;73.00;54.75;;;;;-1.50;100.00;101999.88;5070258;28;45799;-80
2022/12/18 00:06:27;;;;;;;;;62.00;50.50;;;;;-1.52;100.00;101999.13;5066521;28;45852;-80
2022/12/18 00:08:54;;;;;;;;;53.00;43.25;;;;;-1.55;100.00;101997.50;5053589;28;46145;-79
2022/12/18 00:11:23;;;;;;;;;66.50;49.25;;;;;-1.67;100.00;101992.91;5054197;28;46299;-79
2022/12/18 00:13:49;;;;;;;;;68.75;46.00;;;;;-1.63;100.00;101999.84;5055322;28;45651;-80
2022/12/18 00:16:20;;;;;;;;;62.75;47.00;;;;;-1.76;100.00;101978.22;5056611;28;45453;-80
2022/12/18 00:18:49;;;;;;;;;65.00;49.75;;;;;-1.67;100.00;101987.53;5054878;28;45315;-80
2022/12/18 00:21:15;;;;;;;;;53.25;44.25;;;;;-1.67;100.00;101993.78;5048783;28;46044;-80
2022/12/18 00:23:43;;;;;;;;;67.50;51.75;;;;;-1.68;100.00;102001.94;5055202;28;45849;-79
2022/12/18 00:26:12;;;;;;;;;60.50;48.00;;;;;-1.71;100.00;101992.22;5055437;28;45371;-80
2022/12/18 00:28:38;;;;;;;;;59.25;46.75;;;;;-1.80;100.00;101982.94;5055509;28;45628;-79
2022/12/18 00:31:06;;;;;;;;;67.00;51.00;;;;;-1.71;100.00;101989.53;5047344;28;45674;-79
2022/12/18 00:33:31;;;;;;;;;67.25;51.75;;;;;-1.67;100.00;101988.38;5054127;28;45434;-79
2022/12/18 00:36:05;;;;;;;;;73.75;53.75;;;;;-1.67;100.00;101993.78;5053740;28;45724;-79
2022/12/18 00:38:31;;;;;;;;;57.25;46.75;;;;;-1.76;100.00;101983.59;5062482;28;45845;-78
2022/12/18 00:40:56;;;;;;;;;63.25;50.25;;;;;-1.70;100.00;102004.72;5054606;28;45491;-79
2022/12/18 00:43:22;;;;;;;;;68.75;52.00;;;;;-1.74;100.00;101997.81;5059780;28;45753;-79
2022/12/18 00:45:47;;;;;;;;;64.75;48.00;;;;;-1.78;100.00;102002.53;5055677;27;45345;-80
2022/12/18 00:48:13;;;;;;;;;67.00;47.75;;;;;-1.81;100.00;102004.56;5054134;28;45427;-80
2022/12/18 00:50:38;;;;;;;;;74.50;55.75;;;;;-1.98;100.00;101982.28;5053374;28;45938;-78
2022/12/18 00:53:04;;;;;;;;;74.25;53.25;;;;;-1.94;100.00;101974.88;5052276;28;45775;-78
2022/12/18 00:55:30;;;;;;;;;72.50;54.50;;;;;-1.98;100.00;101984.09;5087019;27;45386;-80
2022/12/18 00:57:55;;;;;;;;;69.50;51.00;;;;;-2.04;100.00;101981.78;5054675;28;45223;-82
2022/12/18 01:00:21;;;;;;;;;68.00;50.25;;;;;-2.15;100.00;101977.09;5054231;28;46265;-79
2022/12/18 01:02:47;;;;;;;;;74.75;54.50;;;;;-2.20;100.00;101985.44;5055342;28;45317;-79
2022/12/18 01:05:13;;;;;;;;;75.25;56.25;;;;;-2.22;100.00;101986.50;5054360;28;45757;-81
2022/12/18 01:07:39;;;;;;;;;70.00;52.50;;;;;-2.24;100.00;101981.22;5054511;28;47549;-81
2022/12/18 01:10:06;;;;;;;;;76.75;58.25;;;;;-2.29;100.00;101980.66;5055523;28;45650;-81
2022/12/18 01:12:32;;;;;;;;;75.25;53.25;;;;;-2.31;100.00;101969.13;5048964;28;45389;-79
2022/12/18 01:14:58;;;;;;;;;78.50;59.50;;;;;-2.37;100.00;101967.66;5072947;28;45389;-83
2022/12/18 01:17:23;;;;;;;;;72.50;52.75;;;;;-2.35;100.00;101970.25;5046543;28;45484;-80
2022/12/18 01:19:49;;;;;;;;;65.75;49.75;;;;;-2.38;100.00;101974.03;5056616;28;46319;-80
2022/12/18 01:22:14;;;;;;;;;74.00;56.75;;;;;-2.45;100.00;101959.22;5055184;28;45799;-80
2022/12/18 01:24:40;;;;;;;;;72.00;51.50;;;;;-2.55;100.00;101947.31;5050159;28;45772;-79
2022/12/18 01:27:05;;;;;;;;;73.75;56.00;;;;;-2.43;100.00;101970.72;5052510;28;46481;-78
2022/12/18 01:29:31;;;;;;;;;74.50;53.75;;;;;-2.43;100.00;101975.25;5061932;28;45674;-78
2022/12/18 01:31:56;;;;;;;;;61.75;50.00;;;;;-2.47;100.00;101979.06;5053870;28;45668;-79
2022/12/18 01:34:25;;;;;;;;;67.00;50.00;;;;;-2.46;100.00;101978.13;5054905;28;45713;-79
2022/12/18 01:36:53;;;;;;;;;76.25;55.00;;;;;-2.58;100.00;101967.16;5050037;28;46580;-80
2022/12/18 01:39:19;;;;;;;;;74.50;49.00;;;;;-2.54;100.00;101975.91;5053529;28;45547;-80
2022/12/18 01:42:03;;;;;;;;;77.00;55.75;;;;;-2.54;100.00;101976.75;5061212;28;45383;-79
2022/12/18 01:44:55;;;;;;;;;75.00;56.00;;;;;-2.51;100.00;101962.28;5083126;27;45704;-77
2022/12/18 01:47:32;;;;;;;;;72.25;52.50;;;;;-2.66;100.00;101948.84;5048263;28;45440;-79
2022/12/18 01:50:00;;;;;;;;;79.25;51.50;;;;;-2.59;100.00;101968.13;5050967;28;46944;-77
2022/12/18 01:52:32;;;;;;;;;75.50;55.25;;;;;-2.70;100.00;101952.66;5052643;28;45319;-79
2022/12/18 01:54:58;;;;;;;;;69.75;51.25;;;;;-2.63;100.00;101966.59;5052523;28;45779;-80
2022/12/18 01:57:25;;;;;;;;;69.50;53.50;;;;;-2.78;100.00;101927.25;5051121;28;45840;-79
2022/12/18 01:59:52;;;;;;;;;72.50;55.00;;;;;-2.66;100.00;101956.03;5052416;28;45718;-79
2022/12/18 02:02:19;;;;;;;;;72.25;57.50;;;;;-2.74;100.00;101937.72;5052592;28;45649;-79
2022/12/18 02:04:45;;;;;;;;;77.75;56.00;;;;;-2.67;100.00;101947.09;5049502;28;45637;-80
2022/12/18 02:08:04;;;;;;;;;80.75;59.50;;;;;-2.64;100.00;101942.50;5047496;28;46086;-79
2022/12/18 02:11:04;;;;;;;;;72.25;56.00;;;;;-2.70;100.00;101928.47;5008911;28;47222;-79
2022/12/18 02:13:44;;;;;;;;;76.50;56.50;;;;;-2.66;100.00;101945.28;5005471;28;45810;-78
2022/12/18 02:16:32;;;;;;;;;63.00;45.25;;;;;-2.65;100.00;101952.38;5058387;27;45741;-79
2022/12/18 02:19:04;;;;;;;;;69.00;54.25;;;;;-2.73;100.00;101922.47;5052823;28;46349;-79
2022/12/18 02:21:54;;;;;;;;;72.00;54.75;;;;;-2.61;100.00;101929.75;5054600;28;45567;-79
2022/12/18 02:24:28;;;;;;;;;75.50;57.25;;;;;-2.61;100.00;101937.81;5050485;28;45767;-80
2022/12/18 02:26:58;;;;;;;;;74.50;50.50;;;;;-2.63;100.00;101922.78;5059926;28;45356;-79
2022/12/18 02:29:29;;;;;;;;;73.25;57.25;;;;;-2.61;100.00;101912.78;5061828;28;45729;-79
2022/12/18 02:32:02;;;;;;;;;75.00;55.75;;;;;-2.54;100.00;101927.56;5059500;27;47020;-79
2022/12/18 02:34:31;;;;;;;;;71.25;54.75;;;;;-2.52;100.00;101920.28;5064553;27;45395;-79
2022/12/18 02:37:00;;;;;;;;;69.75;52.25;;;;;-2.47;100.00;101920.88;5052925;28;45980;-82
2022/12/18 02:39:29;;;;;;;;;65.75;53.50;;;;;-2.35;100.00;101921.91;5057926;28;45511;-81
2022/12/18 02:41:55;;;;;;;;;74.75;54.00;;;;;-2.23;100.00;101914.91;5071496;28;45417;-81
2022/12/18 02:44:20;;;;;;;;;65.50;48.75;;;;;-2.31;100.00;101880.44;5065442;28;45890;-81
2022/12/18 02:46:50;;;;;;;;;72.00;53.50;;;;;-2.11;100.00;101914.16;5058283;27;45718;-81
2022/12/18 02:49:33;;;;;;;;;65.75;49.00;;;;;-2.04;100.00;101911.91;5066220;28;45388;-80
2022/12/18 02:52:38;;;;;;;;;65.25;49.75;;;;;-2.09;100.00;101895.22;5051885;28;45685;-77
2022/12/18 02:55:19;;;;;;;;;73.50;52.75;;;;;-1.85;100.00;101909.78;5028301;28;45862;-79
2022/12/18 02:57:58;;;;;;;;;64.00;47.75;;;;;-1.82;100.00;101898.81;5054163;28;45665;-78
2022/12/18 03:00:41;;;;;;;;;65.50;50.25;;;;;-1.76;100.00;101889.50;5054006;28;45429;-80
2022/12/18 03:03:52;;;;;;;;;67.25;53.00;;;;;-1.66;100.00;101887.03;5053918;28;45449;-79
2022/12/18 03:06:29;;;;;;;;;63.50;48.75;;;;;-1.61;100.00;101896.53;5041117;28;45795;-79
2022/12/18 03:09:00;;;;;;;;;62.25;44.25;;;;;-1.55;100.00;101889.03;5052692;28;45886;-79
2022/12/18 03:14:18;;;;;;;;;72.00;52.50;;;;;-1.48;100.00;101904.66;5054654;28;45357;-77
2022/12/18 03:16:46;;;;;;;;;64.25;47.50;;;;;-1.49;100.00;101896.72;5056918;28;45498;-79
2022/12/18 03:19:16;;;;;;;;;54.00;43.00;;;;;-1.49;100.00;101894.88;5056295;28;45647;-79
2022/12/18 03:21:54;;;;;;;;;63.00;47.00;;;;;-1.48;100.00;101898.44;5062342;28;45866;-78
2022/12/18 03:24:21;;;;;;;;;57.25;47.25;;;;;-1.45;100.00;101899.09;5058059;28;45823;-79
2022/12/18 03:26:52;;;;;;;;;54.75;44.75;;;;;-1.38;100.00;101901.38;5052538;28;45403;-78
2022/12/18 03:29:20;;;;;;;;;65.00;48.00;;;;;-1.31;100.00;101898.16;5057712;28;45526;-81
2022/12/18 03:31:54;;;;;;;;;60.25;47.50;;;;;-1.28;100.00;101897.94;5058798;28;45773;-81
2022/12/18 03:34:29;;;;;;;;;54.25;41.25;;;;;-1.25;100.00;101896.88;5056038;28;45463;-79
2022/12/18 03:36:54;;;;;;;;;54.00;43.75;;;;;-1.10;100.00;101895.84;5053109;28;45453;-79
2022/12/18 03:39:20;;;;;;;;;40.50;33.50;;;;;-1.11;100.00;101887.88;5053949;28;45777;-78
2022/12/18 03:42:01;;;;;;;;;51.25;40.25;;;;;-1.06;100.00;101893.81;5054541;28;45825;-78
2022/12/18 03:44:35;;;;;;;;;60.75;47.75;;;;;-1.10;100.00;101878.84;5051778;28;45706;-79
2022/12/18 03:47:13;;;;;;;;;53.00;44.75;;;;;-0.97;100.00;101886.94;5065062;28;45703;-78
2022/12/18 03:50:11;;;;;;;;;61.75;45.75;;;;;-0.91;100.00;101887.38;5051431;28;45473;-78
2022/12/18 03:52:42;;;;;;;;;53.50;40.00;;;;;-0.99;100.00;101881.66;5050143;28;45958;-77
2022/12/18 03:55:09;;;;;;;;;54.00;42.50;;;;;-1.11;100.00;101856.44;5052371;28;45534;-79
2022/12/18 03:57:35;;;;;;;;;61.75;45.50;;;;;-0.95;100.00;101879.63;5054769;28;45686;-77
2022/12/18 04:00:06;;;;;;;;;57.00;46.50;;;;;-0.94;100.00;101868.72;5053801;28;45616;-78
2022/12/18 04:02:34;;;;;;;;;63.75;46.50;;;;;-0.98;100.00;101859.13;5055762;28;45746;-79
2022/12/18 04:05:04;;;;;;;;;61.00;44.00;;;;;-1.12;100.00;101833.19;5053507;28;45484;-78
2022/12/18 04:07:30;;;;;;;;;64.00;46.25;;;;;-0.89;100.00;101857.63;5049160;28;45780;-78
2022/12/18 04:10:00;;;;;;;;;60.25;47.00;;;;;-0.94;100.00;101846.34;5054426;28;45689;-81
2022/12/18 04:12:26;;;;;;;;;54.50;40.75;;;;;-0.81;100.00;101851.72;5054492;28;45749;-79
2022/12/18 04:14:52;;;;;;;;;64.50;46.50;;;;;-0.87;100.00;101839.53;5054094;28;45934;-80
2022/12/18 04:17:18;;;;;;;;;64.75;49.75;;;;;-0.89;100.00;101869.25;5049481;28;45699;-80
2022/12/18 04:19:43;;;;;;;;;58.75;47.00;;;;;-0.84;100.00;101868.09;5053396;28;45701;-79
2022/12/18 04:22:12;;;;;;;;;56.00;43.25;;;;;-0.92;100.00;101877.56;5052891;28;45839;-81
2022/12/18 04:24:37;;;;;;;;;61.00;47.50;;;;;-0.95;100.00;101876.91;5046309;28;45639;-80
2022/12/18 04:27:03;;;;;;;;;57.50;44.50;;;;;-0.91;100.00;101867.66;5050984;28;45485;-80
2022/12/18 04:29:28;;;;;;;;;59.75;45.25;;;;;-0.88;100.00;101867.44;5055297;28;45665;-80
2022/12/18 04:31:54;;;;;;;;;56.75;42.25;;;;;-0.83;100.00;101854.50;5053005;28;45559;-81
2022/12/18 04:34:20;;;;;;;;;64.25;47.00;;;;;-0.77;100.00;101866.69;5042879;28;46399;-79
2022/12/18 04:36:46;;;;;;;;;59.00;47.25;;;;;-0.87;100.00;101868.31;5035236;28;45323;-78
2022/12/18 04:39:11;;;;;;;;;62.75;46.00;;;;;-0.79;100.00;101872.19;5056661;28;45787;-80
2022/12/18 04:41:38;;;;;;;;;59.25;44.00;;;;;-0.67;100.00;101870.47;5055610;27;46525;-80
2022/12/18 04:44:04;;;;;;;;;51.00;42.00;;;;;-0.63;100.00;101872.00;5056202;28;46625;-78
2022/12/18 04:46:29;;;;;;;;;56.75;41.50;;;;;-0.78;100.00;101846.09;5052285;28;45727;-78
2022/12/18 04:48:55;;;;;;;;;52.75;42.50;;;;;-0.51;100.00;101883.72;5038538;28;45692;-78
2022/12/18 04:51:20;;;;;;;;;62.25;45.00;;;;;-0.58;100.00;101890.53;5042983;28;45681;-78
2022/12/18 04:53:46;;;;;;;;;55.25;42.50;;;;;-0.64;100.00;101885.56;5053599;28;45472;-78
2022/12/18 04:56:15;;;;;;;;;56.75;43.25;;;;;-0.64;100.00;101877.50;5053108;28;45308;-79
2022/12/18 04:58:42;;;;;;;;;45.00;40.75;;;;;-0.69;100.00;101871.53;5054210;28;45831;-81
2022/12/18 05:01:09;;;;;;;;;63.75;44.25;;;;;-0.73;100.00;101879.84;5054677;28;45365;-81
2022/12/18 05:03:35;;;;;;;;;61.50;46.75;;;;;-0.73;100.00;101876.28;5055188;28;45765;-78
2022/12/18 05:06:01;;;;;;;;;65.75;49.75;;;;;-0.74;100.00;101882.66;5066253;28;45518;-80
2022/12/18 05:08:27;;;;;;;;;66.50;48.50;;;;;-0.86;100.00;101876.28;5048223;28;45661;-79
2022/12/18 05:11:04;;;;;;;;;59.00;46.25;;;;;-0.86;100.00;101873.59;5051442;28;45618;-80
2022/12/18 05:13:31;;;;;;;;;55.75;41.50;;;;;-0.82;100.00;101879.63;5045695;28;47010;-79
2022/12/18 05:15:56;;;;;;;;;57.50;43.00;;;;;-0.92;100.00;101865.94;5052096;28;45719;-80
2022/12/18 05:18:26;;;;;;;;;59.50;48.00;;;;;-1.00;100.00;101869.16;5052267;28;45330;-78
2022/12/18 05:20:53;;;;;;;;;59.00;43.75;;;;;-0.93;100.00;101875.84;5040253;28;45899;-80
2022/12/18 05:23:19;;;;;;;;;56.25;46.25;;;;;-0.89;100.00;101889.97;5052890;28;45974;-77
2022/12/18 05:25:56;;;;;;;;;62.25;46.00;;;;;-0.81;100.00;101902.88;5050291;28;45665;-79
2022/12/18 05:28:23;;;;;;;;;65.75;49.25;;;;;-0.75;100.00;101902.47;5051925;28;45829;-78
2022/12/18 05:30:53;;;;;;;;;57.25;44.00;;;;;-0.94;100.00;101879.50;5053029;28;45598;-78
2022/12/18 05:33:20;;;;;;;;;58.75;46.50;;;;;-0.75;100.00;101905.16;5051228;28;45423;-80
2022/12/18 05:35:58;;;;;;;;;56.50;47.75;;;;;-0.71;100.00;101899.44;5053358;28;45616;-77
2022/12/18 05:38:25;;;;;;;;;62.50;49.25;;;;;-0.65;100.00;101894.63;5050195;28;45441;-77
2022/12/18 05:40:52;;;;;;;;;61.25;46.25;;;;;-0.62;100.00;101894.41;5064753;28;45905;-79
2022/12/18 05:43:19;;;;;;;;;53.00;41.50;;;;;-0.64;100.00;101897.19;5055527;28;47071;-78
2022/12/18 05:45:44;;;;;;;;;61.50;47.50;;;;;-0.72;100.00;101889.66;5051866;28;45376;-77
2022/12/18 05:48:13;;;;;;;;;59.50;42.75;;;;;-0.73;100.00;101892.47;5051014;28;47031;-78
2022/12/18 05:50:41;;;;;;;;;48.75;39.75;;;;;-0.64;100.00;101886.41;5052522;28;45852;-79
2022/12/18 05:53:07;;;;;;;;;66.75;47.75;;;;;-0.66;100.00;101872.22;5050553;28;46078;-78
2022/12/18 05:55:34;;;;;;;;;57.50;46.00;;;;;-0.60;100.00;101882.56;5053174;28;45539;-78
2022/12/18 05:58:02;;;;;;;;;45.00;34.75;;;;;-0.58;100.00;101882.44;5051065;28;45449;-79
2022/12/18 06:00:28;;;;;;;;;61.00;43.00;;;;;-0.72;100.00;101848.38;5057584;28;45768;-80
2022/12/18 06:05:27;;;;;;;;;61.25;48.25;;;;;-0.50;100.00;101863.03;5032341;28;45247;-79
2022/12/18 06:07:53;;;;;;;;;61.25;45.25;;;;;-0.48;100.00;101874.56;5032773;28;45401;-79
2022/12/18 06:10:19;;;;;;;;;69.50;47.50;;;;;-0.49;100.00;101870.16;5034021;28;45743;-80
2022/12/18 06:12:44;;;;;;;;;49.25;40.00;;;;;-0.52;100.00;101867.66;5031869;28;46020;-77
2022/12/18 06:15:10;;;;;;;;;60.50;45.75;;;;;-0.54;100.00;101855.16;5033590;28;45854;-78
2022/12/18 06:17:36;;;;;;;;;55.25;41.50;;;;;-0.59;100.00;101851.06;5033137;28;45923;-79
2022/12/18 06:20:01;;;;;;;;;54.25;42.25;;;;;-0.42;100.00;101856.13;5034393;28;45682;-80
2022/12/18 06:22:27;;;;;;;;;60.75;46.50;;;;;-0.38;100.00;101865.69;5032823;28;48039;-78
2022/12/18 06:24:53;;;;;;;;;64.00;47.50;;;;;-0.39;100.00;101858.59;5045860;28;46017;-78
2022/12/18 06:27:18;;;;;;;;;57.50;46.50;;;;;-0.44;100.00;101849.97;5044798;28;45392;-76
2022/12/18 06:29:44;;;;;;;;;61.75;46.75;;;;;-0.34;100.00;101863.66;5029193;28;45559;-78
2022/12/18 06:32:09;;;;;;;;;53.50;43.00;;;;;-0.32;100.00;101860.84;5036070;28;45361;-80
2022/12/18 06:34:37;;;;;;;;;57.00;43.25;;;;;-0.21;100.00;101875.28;5035451;28;45689;-79
2022/12/18 06:37:03;;;;;;;;;53.25;41.25;;;;;-0.25;100.00;101854.91;5050987;28;45469;-80
2022/12/18 06:39:29;;;;;;;;;59.25;44.50;;;;;-0.16;100.00;101866.00;5049214;28;46159;-80
2022/12/18 06:41:54;;;;;;;;;58.25;45.50;;;;;-0.18;100.00;101860.69;5037269;28;46093;-80
2022/12/18 06:44:20;;;;;;;;;39.75;28.75;;;;;-0.23;100.00;101858.34;5032288;28;45633;-80
2022/12/18 06:46:45;;;;;;;;;57.50;45.00;;;;;-0.27;100.00;101845.19;5033071;28;45348;-77
2022/12/18 06:49:11;;;;;;;;;60.00;45.75;;;;;-0.16;100.00;101861.47;5033347;28;45734;-77
2022/12/18 06:51:37;;;;;;;;;54.75;45.50;;;;;-0.14;100.00;101850.56;5032731;28;46188;-79
2022/12/18 06:54:02;;;;;;;;;56.00;44.75;;;;;-0.12;100.00;101838.72;5033840;28;45330;-78
2022/12/18 06:56:28;;;;;;;;;60.75;47.50;;;;;-0.15;100.00;101848.84;5033284;28;45752;-81
2022/12/18 06:58:54;;;;;;;;;58.00;45.50;;;;;-0.19;100.00;101842.81;5033608;28;45881;-77
2022/12/18 07:01:20;;;;;;;;;46.75;40.50;;;;;-0.18;100.00;101839.13;5026805;28;45549;-77
2022/12/18 07:03:46;;;;;;;;;55.25;41.75;;;;;-0.27;100.00;101815.53;5027915;28;45624;-79
2022/12/18 07:06:17;;;;;;;;;71.25;52.50;;;;;-0.19;100.00;101832.88;5025514;28;45438;-78
2022/12/18 07:08:43;;;;;;;;;41.50;35.50;;;;;-0.30;100.00;101835.53;5026936;28;46690;-78
2022/12/18 07:11:08;;;;;;;;;60.25;46.50;;;;;-0.29;100.00;101834.53;5029862;28;46002;-76
2022/12/18 07:13:34;;;;;;;;;54.50;41.75;;;;;-0.33;100.00;101826.78;5028711;28;46086;-80
2022/12/18 07:16:07;;;;;;;;;49.50;42.50;;;;;-0.52;100.00;101802.97;5028979;28;46230;-74
2022/12/18 07:18:32;;;;;;;;;52.75;45.75;;;;;-0.29;100.00;101825.59;5027332;28;45713;-77
2022/12/18 07:20:58;;;;;;;;;58.50;41.25;;;;;-0.33;100.00;101824.97;5027594;28;45884;-79
2022/12/18 07:23:23;;;;;;;;;48.75;40.25;;;;;-0.26;100.00;101826.22;5027014;28;45641;-79
2022/12/18 07:25:49;;;;;;;;;57.50;46.00;;;;;-0.24;100.00;101829.69;5051401;28;45850;-76
2022/12/18 07:28:14;;;;;;;;;60.50;42.25;;;;;-0.23;100.00;101831.38;5048777;28;45417;-73
2022/12/18 07:30:40;;;;;;;;;56.00;43.75;;;;;-0.22;100.00;101829.56;5043943;28;45914;-76
2022/12/18 07:33:06;;;;;;;;;53.75;41.75;;;;;-0.20;100.00;101828.47;5047122;28;45464;-78
2022/12/18 07:35:33;;;;;;;;;56.25;39.75;;;;;-0.10;100.00;101834.06;5061335;28;45557;-80
2022/12/18 07:38:01;;;;;;;;;63.25;42.50;;;;;-0.21;100.00;101824.06;5047653;28;45685;-79
2022/12/18 07:40:26;;;;;;;;;59.75;47.00;;;;;-0.12;100.00;101832.44;5052000;28;46241;-78
2022/12/18 07:42:52;;;;;;;;;54.50;44.50;;;;;-0.04;100.00;101843.53;5047725;28;45520;-78
2022/12/18 07:45:17;;;;;;;;;53.75;44.25;;;;;0.08;100.00;101855.25;5047376;28;45482;-77
2022/12/18 07:47:43;;;;;;;;;55.50;44.25;;;;;0.20;100.00;101856.19;5042413;28;46059;-77
2022/12/18 07:50:09;;;;;;;;;54.25;42.25;;;;;0.31;100.00;101850.84;5052121;28;46090;-80
2022/12/18 07:52:34;;;;;;;;;51.75;39.75;;;;;0.33;100.00;101846.22;5050811;28;45559;-80
2022/12/18 07:55:00;;;;;;;;;62.75;42.25;;;;;0.37;100.00;101853.09;5046724;28;45792;-77
2022/12/18 07:57:25;;;;;;;;;49.25;37.75;;;;;0.44;100.00;101851.66;5048626;28;46620;-82
2022/12/18 07:59:54;;;;;;;;;52.25;40.50;;;;;0.28;100.00;101838.44;5045491;28;45679;-74
2022/12/18 08:02:19;;;;;;;;;57.25;41.50;;;;;0.16;100.00;101839.34;5039007;28;45322;-72
2022/12/18 08:04:45;;;;;;;;;52.25;41.75;;;;;-0.01;100.00;101837.91;5051908;28;45798;-80
2022/12/18 08:07:10;;;;;;;;;59.00;42.00;;;;;-0.07;100.00;101843.78;5051256;28;45940;-82
2022/12/18 08:09:36;;;;;;;;;60.75;45.50;;;;;-0.20;100.00;101823.06;5054155;28;46352;-79
2022/12/18 08:12:01;;;;;;;;;53.50;45.00;;;;;-0.22;100.00;101827.72;5056056;28;45547;-82
2022/12/18 08:17:13;;;;;;;;;50.00;38.00;;;;;-0.02;100.00;101838.88;5050616;28;46020;-81
2022/12/18 08:19:39;;;;;;;;;59.75;44.25;;;;;-0.07;100.00;101832.97;5052947;28;45849;-76
2022/12/18 08:22:04;;;;;;;;;54.00;43.50;;;;;0.12;100.00;101849.53;5047266;28;45512;-80
2022/12/18 08:24:30;;;;;;;;;50.75;38.25;;;;;0.00;100.00;101847.75;5053666;28;46233;-79
2022/12/18 08:26:57;;;;;;;;;52.00;42.25;;;;;-0.22;100.00;101829.56;5050228;28;45512;-76
2022/12/18 08:29:22;;;;;;;;;61.50;46.50;;;;;-0.28;100.00;101832.72;5052140;28;45847;-82
2022/12/18 08:31:48;;;;;;;;;56.75;43.50;;;;;-0.24;100.00;101845.84;5063300;28;45578;-84
2022/12/18 08:34:13;;;;;;;;;59.25;41.25;;;;;-0.18;100.00;101866.09;5076621;27;45888;-82
2022/12/18 08:36:39;;;;;;;;;45.50;37.75;;;;;-0.18;100.00;101847.22;5061251;28;45547;-84
2022/12/18 08:39:05;;;;;;;;;45.25;37.50;;;;;0.00;100.00;101858.53;5053380;28;46693;-75
2022/12/18 08:41:30;;;;;;;;;59.25;48.25;;;;;0.01;100.00;101849.44;5052502;28;45578;-84
2022/12/18 08:46:43;;;;;;;;;53.25;43.25;;;;;0.20;100.00;101865.13;5066412;28;45499;-86
2022/12/18 08:49:10;;;;;;;;;59.75;44.00;;;;;0.31;100.00;101865.19;5067941;28;45467;-86
2022/12/18 08:51:35;;;;;;;;;62.00;44.25;;;;;0.37;100.00;101860.31;5062684;28;46199;-84
2022/12/18 08:54:01;;;;;;;;;60.25;45.75;;;;;0.37;100.00;101861.19;5062397;28;44853;-85
2022/12/18 08:56:27;;;;;;;;;62.50;45.50;;;;;0.64;100.00;101887.91;5062703;28;45841;-83
2022/12/18 08:58:54;;;;;;;;;56.75;43.00;;;;;0.77;100.00;101874.38;5057412;28;46479;-84
2022/12/18 09:01:22;;;;;;;;;60.25;44.50;;;;;1.01;100.00;101885.13;5052041;28;45837;-83
2022/12/18 09:03:50;;;;;;;;;55.00;41.00;;;;;0.97;100.00;101853.91;5054265;28;45768;-76
2022/12/18 09:06:22;;;;;;;;;63.00;48.50;;;;;1.05;100.00;101866.84;5048537;28;46048;-81
2022/12/18 09:08:47;;;;;;;;;58.50;45.75;;;;;0.95;100.00;101845.09;5068511;27;46024;-80
2022/12/18 09:11:19;;;;;;;;;64.25;44.75;;;;;0.90;100.00;101843.72;5054683;28;47516;-81
2022/12/18 09:13:44;;;;;;;;;54.25;42.00;;;;;0.90;100.00;101870.72;5052348;28;45518;-83
2022/12/18 09:16:10;;;;;;;;;58.00;44.50;;;;;0.94;100.00;101869.50;5051418;28;45484;-82
2022/12/18 09:18:35;;;;;;;;;58.50;44.00;;;;;1.13;100.00;101871.66;5054270;28;46967;-83
2022/12/18 09:21:11;;;;;;;;;52.00;42.00;;;;;1.20;100.00;101854.00;5041889;28;45476;-79
2022/12/18 09:23:36;;;;;;;;;56.75;43.00;;;;;1.31;100.00;101861.25;5054663;28;45697;-85
2022/12/18 09:26:02;;;;;;;;;53.25;42.50;;;;;1.22;100.00;101860.13;5079033;28;45529;-83
2022/12/18 09:28:28;;;;;;;;;56.50;45.75;;;;;1.22;100.00;101857.44;5068980;28;45941;-81
2022/12/18 09:30:54;;;;;;;;;64.00;46.00;;;;;1.37;100.00;101847.25;5062244;28;45468;-81
2022/12/18 09:33:19;;;;;;;;;53.75;45.75;;;;;1.29;100.00;101842.47;5059761;28;45316;-82
2022/12/18 09:35:45;;;;;;;;;54.75;45.00;;;;;1.29;100.00;101845.16;5057219;28;47277;-82
2022/12/18 09:38:18;;;;;;;;;57.00;41.00;;;;;1.30;100.00;101848.72;5064956;28;46125;-82
2022/12/18 09:40:53;;;;;;;;;65.25;47.75;;;;;1.40;100.00;101841.59;5064347;28;45946;-81
2022/12/18 09:43:46;;;;;;;;;59.50;47.50;;;;;1.49;100.00;101850.81;5064784;28;45825;-84
2022/12/18 09:46:18;;;;;;;;;57.00;46.75;;;;;1.59;100.00;101863.47;5060307;28;45391;-82
2022/12/18 09:48:52;;;;;;;;;56.25;41.50;;;;;1.68;100.00;101853.78;5073239;28;46314;-80
2022/12/18 09:51:43;;;;;;;;;56.75;42.25;;;;;1.46;100.00;101838.41;5069043;27;45310;-82
2022/12/18 09:54:21;;;;;;;;;59.25;44.75;;;;;1.46;100.00;101853.78;5052957;28;45858;-78
2022/12/18 09:56:47;;;;;;;;;59.00;45.75;;;;;1.62;100.00;101847.97;5057539;27;45980;-78
2022/12/18 09:59:25;;;;;;;;;55.25;42.00;;;;;1.64;100.00;101833.38;5054703;28;45678;-80
2022/12/18 10:01:51;;;;;;;;;61.50;47.50;;;;;1.72;100.00;101843.56;5051830;28;45546;-85
2022/12/18 10:04:16;;;;;;;;;61.00;46.75;;;;;1.85;100.00;101827.22;5058453;28;45444;-81
2022/12/18 10:06:53;;;;;;;;;63.00;47.00;;;;;2.19;100.00;101840.69;5048702;28;45562;-80
2022/12/18 10:09:35;;;;;;;;;62.75;47.25;;;;;2.33;100.00;101836.81;5051339;28;47184;-75
2022/12/18 10:12:21;;;;;;;;;58.50;44.00;;;;;2.49;100.00;101837.25;5054962;28;45844;-76
2022/12/18 10:15:05;;;;;;;;;56.00;44.00;;;;;2.63;100.00;101845.09;5047008;28;45956;-78
2022/12/18 10:17:58;;;;;;;;;57.00;46.00;;;;;2.71;100.00;101841.72;5048316;28;45868;-78
2022/12/18 10:20:48;;;;;;;;;54.50;39.25;;;;;2.82;100.00;101835.38;5048733;28;46763;-76
2022/12/18 10:23:25;;;;;;;;;54.75;39.50;;;;;2.92;100.00;101838.16;5049391;28;46223;-75
2022/12/18 10:26:07;;;;;;;;;56.00;44.75;;;;;2.98;100.00;101833.06;5045201;28;45742;-75
2022/12/18 10:28:36;;;;;;;;;60.50;46.00;;;;;3.06;100.00;101821.56;5053396;28;45475;-78
2022/12/18 10:31:04;;;;;;;;;56.50;40.25;;;;;3.05;100.00;101817.13;5049687;28;46203;-75
2022/12/18 10:33:33;;;;;;;;;54.00;39.00;;;;;3.16;100.00;101824.34;5049948;28;45754;-76
2022/12/18 10:35:59;;;;;;;;;60.50;45.75;;;;;3.09;100.00;101829.44;5052729;28;45528;-77
2022/12/18 10:38:28;;;;;;;;;54.25;43.75;;;;;3.25;100.00;101818.13;5046124;28;45721;-77
2022/12/18 10:41:08;;;;;;;;;65.00;44.25;;;;;3.29;100.00;101819.56;5049641;28;45677;-77
2022/12/18 10:43:40;;;;;;;;;67.75;45.75;;;;;3.21;100.00;101815.81;5047352;28;45783;-77
2022/12/18 10:46:09;;;;;;;;;55.00;42.50;;;;;3.38;100.00;101817.03;5049320;28;45960;-77
2022/12/18 10:48:48;;;;;;;;;57.50;42.50;;;;;3.50;100.00;101814.09;5050118;28;46546;-78
2022/12/18 10:51:26;;;;;;;;;56.75;42.75;;;;;3.38;100.00;101811.59;5065394;28;46401;-77
2022/12/18 10:54:05;;;;;;;;;55.75;41.25;;;;;3.43;100.00;101807.50;5049174;28;45857;-77
2022/12/18 10:56:34;;;;;;;;;53.50;41.75;;;;;3.29;100.00;101797.88;5049484;28;45872;-77
2022/12/18 10:59:05;;;;;;;;;58.00;41.75;;;;;3.29;100.00;101807.84;5047661;28;45830;-75
2022/12/18 11:01:50;;;;;;;;;48.75;39.25;;;;;3.48;100.00;101801.66;5047363;28;46290;-77
2022/12/18 11:04:19;;;;;;;;;57.50;43.75;;;;;3.52;100.00;101805.84;5060687;28;45753;-78
2022/12/18 11:07:02;;;;;;;;;53.50;41.25;;;;;3.71;100.00;101797.75;5046128;28;45942;-76
2022/12/18 11:09:32;;;;;;;;;64.75;46.00;;;;;3.61;100.00;101807.72;5047241;28;45721;-78
2022/12/18 11:12:06;;;;;;;;;60.25;45.75;;;;;3.54;100.00;101801.97;5065551;28;48095;-77
2022/12/18 11:14:56;;;;;;;;;61.00;44.25;;;;;3.76;100.00;101804.59;5048756;28;46107;-78
2022/12/18 11:17:34;;;;;;;;;57.75;43.50;;;;;4.07;100.00;101798.13;5042147;28;45775;-75
2022/12/18 11:20:23;;;;;;;;;54.75;41.50;;;;;4.13;100.00;101795.84;5048774;28;45759;-79
2022/12/18 11:23:19;;;;;;;;;55.75;46.25;;;;;4.16;100.00;101790.13;5049795;28;45539;-81
2022/12/18 11:25:54;;;;;;;;;58.25;42.50;;;;;4.11;100.00;101776.13;5038415;28;45897;-79
2022/12/18 11:28:43;;;;;;;;;61.50;46.50;;;;;3.96;100.00;101779.25;5046418;28;45840;-79